createdAt,value
2019-01-20T00:00:19.838Z,5.97
2019-01-20T00:02:48.398Z,6.07
2019-01-20T00:05:17.353Z,6.43
2019-01-20T00:07:45.939Z,5.93
2019-01-20T00:10:14.670Z,7.07
2019-01-20T00:12:43.156Z,6.77
2019-01-20T00:15:17.693Z,5.73
2019-01-20T00:17:46.254Z,6.20
2019-01-20T00:20:14.922Z,6.07
2019-01-20T00:22:43.603Z,7.03
2019-01-20T00:25:12.610Z,6.00
2019-01-20T00:27:41.185Z,6.40
2019-01-20T00:30:14.884Z,6.80
2019-01-20T00:32:43.488Z,6.57
2019-01-20T00:35:12.199Z,6.27
2019-01-20T00:37:40.801Z,6.03
2019-01-20T00:40:12.616Z,6.20
2019-01-20T00:42:41.189Z,6.43
2019-01-20T00:45:17.334Z,6.30
2019-01-20T00:47:45.918Z,7.33
2019-01-20T00:50:15.946Z,6.87
2019-01-20T00:52:44.483Z,6.77
2019-01-20T00:55:15.493Z,7.53
2019-01-20T00:57:44.441Z,6.77
2019-01-20T01:00:18.895Z,6.73
2019-01-20T01:02:47.545Z,7.00
2019-01-20T01:05:16.580Z,7.20
2019-01-20T01:07:45.234Z,7.60
2019-01-20T01:10:14.050Z,6.87
2019-01-20T01:12:42.776Z,7.00
2019-01-20T01:15:12.177Z,6.33
2019-01-20T01:17:40.829Z,6.43
2019-01-20T01:20:12.224Z,6.57
2019-01-20T01:22:40.882Z,7.03
2019-01-20T01:25:11.266Z,7.03
2019-01-20T01:27:39.935Z,6.53
2019-01-20T01:30:11.719Z,7.07
2019-01-20T01:32:40.237Z,6.70
2019-01-20T01:35:08.967Z,6.97
2019-01-20T01:37:37.623Z,6.17
2019-01-20T01:40:09.458Z,6.37
2019-01-20T01:42:38.056Z,7.07
2019-01-20T01:45:09.701Z,6.60
2019-01-20T01:47:38.310Z,6.20
2019-01-20T01:50:09.014Z,7.13
2019-01-20T01:52:37.522Z,5.90
2019-01-20T01:55:08.050Z,5.87
2019-01-20T01:57:36.642Z,6.27
2019-01-20T02:00:11.418Z,7.50
2019-01-20T02:02:40.007Z,6.27
2019-01-20T02:05:09.655Z,6.13
2019-01-20T02:07:38.274Z,6.73
2019-01-20T02:10:09.837Z,7.37
2019-01-20T02:12:38.497Z,6.70
2019-01-20T02:15:09.130Z,7.43
2019-01-20T02:17:37.640Z,5.93
2019-01-20T02:20:09.437Z,6.87
2019-01-20T02:22:37.945Z,6.60
2019-01-20T02:25:06.673Z,6.77
2019-01-20T02:27:35.271Z,6.83
2019-01-20T02:30:05.742Z,6.60
2019-01-20T02:32:34.325Z,6.43
2019-01-20T02:35:02.824Z,6.13
2019-01-20T02:37:31.398Z,7.37
2019-01-20T02:39:59.987Z,6.97
2019-01-20T02:42:28.559Z,6.80
2019-01-20T02:44:57.142Z,6.60
2019-01-20T02:47:25.642Z,7.40
2019-01-20T02:49:54.226Z,6.93
2019-01-20T02:52:22.811Z,6.90
2019-01-20T02:54:51.390Z,7.00
2019-01-20T02:57:20.022Z,7.47
2019-01-20T02:59:48.619Z,6.40
2019-01-20T03:02:17.187Z,8.00
2019-01-20T03:04:45.770Z,8.53
2019-01-20T03:07:14.343Z,7.80
2019-01-20T03:09:43.006Z,8.60
2019-01-20T03:12:11.650Z,8.97
2019-01-20T03:14:40.242Z,9.13
2019-01-20T03:17:08.820Z,8.67
2019-01-20T03:19:37.402Z,9.33
2019-01-20T03:22:06.145Z,8.33
2019-01-20T03:24:34.756Z,7.77
2019-01-20T03:27:03.326Z,8.33
2019-01-20T03:29:31.901Z,7.80
2019-01-20T03:32:00.390Z,8.03
2019-01-20T03:34:28.974Z,8.43
2019-01-20T03:36:57.535Z,8.17
2019-01-20T03:39:26.117Z,7.97
2019-01-20T03:41:54.607Z,7.70
2019-01-20T03:44:23.123Z,7.37
2019-01-20T03:46:51.616Z,8.20
2019-01-20T03:49:20.227Z,8.60
2019-01-20T03:51:48.716Z,7.67
2019-01-20T03:54:17.370Z,7.67
2019-01-20T03:56:45.894Z,7.17
2019-01-20T03:59:14.498Z,7.30
2019-01-20T04:01:43.059Z,6.73
2019-01-20T04:04:11.627Z,7.27
2019-01-20T04:06:40.211Z,7.17
2019-01-20T04:09:08.952Z,6.80
2019-01-20T04:11:37.611Z,8.10
2019-01-20T04:14:07.086Z,7.73
2019-01-20T04:16:35.669Z,8.03
2019-01-20T04:19:04.334Z,7.40
2019-01-20T04:21:32.991Z,7.87
2019-01-20T04:24:01.568Z,7.70
2019-01-20T04:26:30.161Z,7.47
2019-01-20T04:28:58.731Z,6.87
2019-01-20T04:31:27.329Z,7.20
2019-01-20T04:33:55.898Z,8.47
2019-01-20T04:36:24.487Z,7.77
2019-01-20T04:38:53.133Z,7.50
2019-01-20T04:41:21.667Z,7.80
2019-01-20T04:43:50.220Z,7.07
2019-01-20T04:46:18.818Z,7.13
2019-01-20T04:48:47.478Z,6.40
2019-01-20T04:51:16.069Z,7.47
2019-01-20T04:53:44.904Z,7.67
2019-01-20T04:56:13.505Z,7.37
2019-01-20T04:58:42.073Z,8.20
2019-01-20T05:01:10.665Z,7.80
2019-01-20T05:03:39.226Z,7.70
2019-01-20T05:06:07.817Z,8.07
2019-01-20T05:08:36.382Z,9.33
2019-01-20T05:11:05.205Z,7.90
2019-01-20T05:13:33.841Z,7.10
2019-01-20T05:16:02.416Z,7.33
2019-01-20T05:18:30.987Z,7.83
2019-01-20T05:20:59.586Z,7.50
2019-01-20T05:23:28.154Z,7.80
2019-01-20T05:25:56.746Z,8.67
2019-01-20T05:28:25.315Z,8.30
2019-01-20T05:30:53.912Z,7.93
2019-01-20T05:33:22.461Z,9.10
2019-01-20T05:35:50.950Z,8.57
2019-01-20T05:38:19.467Z,8.13
2019-01-20T05:40:47.966Z,8.07
2019-01-20T05:43:16.568Z,8.17
2019-01-20T05:45:45.214Z,8.27
2019-01-20T05:48:13.721Z,7.03
2019-01-20T05:50:42.243Z,8.30
2019-01-20T05:53:10.839Z,8.23
2019-01-20T05:55:39.426Z,7.20
2019-01-20T05:58:08.009Z,7.60
2019-01-20T06:00:37.031Z,7.63
2019-01-20T06:03:05.662Z,8.33
2019-01-20T06:05:34.235Z,10.13
2019-01-20T06:08:02.829Z,8.67
2019-01-20T06:10:31.457Z,9.30
2019-01-20T06:12:59.981Z,9.10
2019-01-20T06:15:28.478Z,9.13
2019-01-20T06:17:57.076Z,7.60
2019-01-20T06:20:25.714Z,8.23
2019-01-20T06:22:54.327Z,9.07
2019-01-20T06:25:22.969Z,9.60
2019-01-20T06:27:51.521Z,9.53
2019-01-20T06:30:23.105Z,9.53
2019-01-20T06:32:51.679Z,11.43
2019-01-20T06:35:20.269Z,11.30
2019-01-20T06:37:48.828Z,10.70
2019-01-20T06:40:17.476Z,9.97
2019-01-20T06:42:45.993Z,11.17
2019-01-20T06:45:15.320Z,10.10
2019-01-20T06:47:43.963Z,9.73
2019-01-20T06:50:17.679Z,8.90
2019-01-20T06:52:46.245Z,9.07
2019-01-20T06:55:14.977Z,8.00
2019-01-20T06:57:43.689Z,7.43
2019-01-20T07:00:19.741Z,8.40
2019-01-20T07:02:48.246Z,7.50
2019-01-20T07:05:16.921Z,7.63
2019-01-20T07:07:45.550Z,8.80
2019-01-20T07:10:15.974Z,9.10
2019-01-20T07:12:44.469Z,8.87
2019-01-20T07:15:15.542Z,8.97
2019-01-20T07:17:44.177Z,7.73
2019-01-20T07:20:13.897Z,8.20
2019-01-20T07:22:42.386Z,8.97
2019-01-20T07:25:11.229Z,8.57
2019-01-20T07:27:39.797Z,8.43
2019-01-20T07:30:19.792Z,8.17
2019-01-20T07:32:48.442Z,7.93
2019-01-20T07:35:17.363Z,8.30
2019-01-20T07:37:46.088Z,7.63
2019-01-20T07:40:19.506Z,8.67
2019-01-20T07:42:48.114Z,8.10
2019-01-20T07:45:17.744Z,8.27
2019-01-20T07:47:46.382Z,8.47
2019-01-20T07:50:17.646Z,8.77
2019-01-20T07:52:46.173Z,8.43
2019-01-20T07:55:14.734Z,8.80
2019-01-20T07:57:43.397Z,8.07
2019-01-20T08:00:14.813Z,8.70
2019-01-20T08:02:43.658Z,8.83
2019-01-20T08:05:12.672Z,10.27
2019-01-20T08:07:41.325Z,9.77
2019-01-20T08:10:12.893Z,9.90
2019-01-20T08:12:41.490Z,9.80
2019-01-20T08:15:12.499Z,8.40
2019-01-20T08:17:41.098Z,9.73
2019-01-20T08:20:12.486Z,10.23
2019-01-20T08:22:41.141Z,10.03
2019-01-20T08:25:11.193Z,9.77
2019-01-20T08:27:39.861Z,10.70
2019-01-20T08:30:17.053Z,11.90
2019-01-20T08:32:45.732Z,10.83
2019-01-20T08:35:14.942Z,10.53
2019-01-20T08:37:43.527Z,11.03
2019-01-20T08:40:17.405Z,10.17
2019-01-20T08:42:45.923Z,9.90
2019-01-20T08:45:20.241Z,10.40
2019-01-20T08:47:50.891Z,10.70
2019-01-20T08:50:19.462Z,8.73
2019-01-20T08:52:48.125Z,10.50
2019-01-20T08:55:16.758Z,7.70
2019-01-20T08:57:45.354Z,9.03
2019-01-20T09:00:16.135Z,9.33
2019-01-20T09:02:44.844Z,8.30
2019-01-20T09:05:13.896Z,8.80
2019-01-20T09:07:42.526Z,9.47
2019-01-20T09:10:20.074Z,9.23
2019-01-20T09:12:48.915Z,7.97
2019-01-20T09:15:17.511Z,9.10
2019-01-20T09:17:46.069Z,9.37
2019-01-20T09:20:15.396Z,8.80
2019-01-20T09:22:44.034Z,9.30
2019-01-20T09:25:14.402Z,8.53
2019-01-20T09:27:43.189Z,9.73
2019-01-20T09:30:14.931Z,8.70
2019-01-20T09:32:43.490Z,8.43
2019-01-20T09:35:12.317Z,10.40
2019-01-20T09:37:40.886Z,9.17
2019-01-20T09:40:12.380Z,8.73
2019-01-20T09:42:40.949Z,8.83
2019-01-20T09:45:30.356Z,8.10
2019-01-20T09:47:59.158Z,8.47
2019-01-20T09:50:27.891Z,9.20
2019-01-20T09:52:56.631Z,8.60
2019-01-20T09:55:25.210Z,9.10
2019-01-20T09:57:53.704Z,9.03
2019-01-20T10:00:30.859Z,8.87
2019-01-20T10:02:59.417Z,9.23
2019-01-20T10:05:28.021Z,9.50
2019-01-20T10:07:56.582Z,9.40
2019-01-20T10:10:25.100Z,8.60
2019-01-20T10:12:53.752Z,9.07
2019-01-20T10:15:22.501Z,8.80
2019-01-20T10:17:51.081Z,8.37
2019-01-20T10:20:25.650Z,9.63
2019-01-20T10:22:54.219Z,9.10
2019-01-20T10:25:22.954Z,9.37
2019-01-20T10:27:51.581Z,9.30
2019-01-20T10:30:25.728Z,9.13
2019-01-20T10:32:54.418Z,9.23
2019-01-20T10:35:27.486Z,9.40
2019-01-20T10:37:57.778Z,8.70
2019-01-20T10:40:26.359Z,8.47
2019-01-20T10:42:54.917Z,9.50
2019-01-20T10:45:23.504Z,7.83
2019-01-20T10:47:52.077Z,8.33
2019-01-20T10:50:20.801Z,8.23
2019-01-20T10:52:49.429Z,8.50
2019-01-20T10:55:18.070Z,7.80
2019-01-20T10:57:46.670Z,9.13
2019-01-20T11:00:21.374Z,7.93
2019-01-20T11:02:49.951Z,8.77
2019-01-20T11:05:24.879Z,8.50
2019-01-20T11:07:48.910Z,8.70
2019-01-20T11:10:17.469Z,8.07
2019-01-20T11:12:45.994Z,8.83
2019-01-20T11:15:16.226Z,7.83
2019-01-20T11:17:44.929Z,7.93
2019-01-20T11:20:16.561Z,8.13
2019-01-20T11:22:45.068Z,6.70
2019-01-20T11:25:16.774Z,7.40
2019-01-20T11:27:45.289Z,7.40
2019-01-20T11:30:14.259Z,7.73
2019-01-20T11:32:42.990Z,7.23
2019-01-20T11:35:19.358Z,7.80
2019-01-20T11:37:48.081Z,7.37
2019-01-20T11:40:16.790Z,8.80
2019-01-20T11:42:45.379Z,6.97
2019-01-20T11:45:22.343Z,6.93
2019-01-20T11:47:50.923Z,7.73
2019-01-20T11:50:19.616Z,7.60
2019-01-20T11:52:48.283Z,7.93
2019-01-20T11:55:20.187Z,7.30
2019-01-20T11:57:48.842Z,7.10
2019-01-20T12:00:20.010Z,7.30
2019-01-20T12:02:48.655Z,6.87
2019-01-20T12:05:18.179Z,7.00
2019-01-20T12:07:46.897Z,6.90
2019-01-20T12:10:15.994Z,7.10
2019-01-20T12:12:46.303Z,6.37
2019-01-20T12:15:16.199Z,7.13
2019-01-20T12:17:44.922Z,7.47
2019-01-20T12:20:15.607Z,7.20
2019-01-20T12:22:44.249Z,6.90
2019-01-20T12:25:15.560Z,7.30
2019-01-20T12:27:44.194Z,7.67
2019-01-20T12:30:30.511Z,6.83
2019-01-20T12:32:59.089Z,7.03
2019-01-20T12:35:27.642Z,6.00
2019-01-20T12:37:56.272Z,8.73
2019-01-20T12:40:39.702Z,6.67
2019-01-20T12:43:08.529Z,7.07
2019-01-20T12:45:37.177Z,7.17
2019-01-20T12:48:06.163Z,5.93
2019-01-20T12:50:34.822Z,6.33
2019-01-20T12:53:03.458Z,6.80
2019-01-20T12:55:32.115Z,6.60
2019-01-20T12:58:00.754Z,7.33
2019-01-20T13:00:29.334Z,6.33
2019-01-20T13:02:57.820Z,6.93
2019-01-20T13:05:26.469Z,5.77
2019-01-20T13:07:54.956Z,6.20
2019-01-20T13:10:23.769Z,6.53
2019-01-20T13:12:52.255Z,6.37
2019-01-20T13:15:22.969Z,6.47
2019-01-20T13:17:51.666Z,6.27
2019-01-20T13:20:25.073Z,7.60
2019-01-20T13:22:53.774Z,7.13
2019-01-20T13:25:24.456Z,5.60
2019-01-20T13:27:53.006Z,6.30
2019-01-20T13:30:24.132Z,5.70
2019-01-20T13:32:52.686Z,6.07
2019-01-20T13:35:22.006Z,5.40
2019-01-20T13:37:53.198Z,6.30
2019-01-20T13:40:33.606Z,6.63
2019-01-20T13:43:02.502Z,6.23
2019-01-20T13:45:31.218Z,6.67
2019-01-20T13:47:59.742Z,6.33
2019-01-20T13:50:28.318Z,5.80
2019-01-20T13:52:56.943Z,6.80
2019-01-20T13:55:25.443Z,5.80
2019-01-20T13:57:53.938Z,6.10
2019-01-20T14:00:26.176Z,5.97
2019-01-20T14:02:54.814Z,5.80
2019-01-20T14:05:23.487Z,5.70
2019-01-20T14:07:52.042Z,5.00
2019-01-20T14:10:22.238Z,5.10
2019-01-20T14:12:50.893Z,5.00
2019-01-20T14:15:19.523Z,5.07
2019-01-20T14:17:48.259Z,5.33
2019-01-20T14:20:24.039Z,5.27
2019-01-20T14:22:52.617Z,5.23
2019-01-20T14:25:28.729Z,4.83
2019-01-20T14:27:57.470Z,5.83
2019-01-20T14:30:33.407Z,5.67
2019-01-20T14:33:02.148Z,5.93
2019-01-20T14:35:30.781Z,7.20
2019-01-20T14:38:01.018Z,7.03
2019-01-20T14:40:29.589Z,7.77
2019-01-20T14:42:58.197Z,6.70
2019-01-20T14:45:26.763Z,7.17
2019-01-20T14:47:55.345Z,7.60
2019-01-20T14:50:27.588Z,8.50
2019-01-20T14:52:56.332Z,6.90
2019-01-20T14:55:25.525Z,6.47
2019-01-20T14:57:54.279Z,7.63
2019-01-20T15:00:34.563Z,9.37
2019-01-20T15:03:03.284Z,9.47
2019-01-20T15:05:31.934Z,7.87
2019-01-20T15:08:00.577Z,7.73
2019-01-20T15:10:29.371Z,6.87
2019-01-20T15:12:58.055Z,7.73
2019-01-20T15:15:35.315Z,7.13
2019-01-20T15:18:05.146Z,7.03
2019-01-20T15:20:33.792Z,7.30
2019-01-20T15:23:02.378Z,8.13
2019-01-20T15:25:31.230Z,8.07
2019-01-20T15:27:59.891Z,8.70
2019-01-20T15:30:32.732Z,7.93
2019-01-20T15:33:03.167Z,7.57
2019-01-20T15:35:31.943Z,8.53
2019-01-20T15:38:00.523Z,7.83
2019-01-20T15:40:29.106Z,7.77
2019-01-20T15:42:57.698Z,8.20
2019-01-20T15:45:26.390Z,7.67
2019-01-20T15:47:54.995Z,8.90
2019-01-20T15:50:31.877Z,8.40
2019-01-20T15:53:01.799Z,8.53
2019-01-20T15:55:30.913Z,8.53
2019-01-20T15:57:59.513Z,9.50
2019-01-20T16:00:30.387Z,7.97
2019-01-20T16:02:59.047Z,7.30
2019-01-20T16:05:28.385Z,7.93
2019-01-20T16:07:57.138Z,9.87
2019-01-20T16:10:25.877Z,8.37
2019-01-20T16:12:54.681Z,7.57
2019-01-20T16:15:28.685Z,8.87
2019-01-20T16:17:57.515Z,8.57
2019-01-20T16:20:28.091Z,8.57
2019-01-20T16:22:56.882Z,7.40
2019-01-20T16:25:30.312Z,9.63
2019-01-20T16:27:58.887Z,10.17
2019-01-20T16:30:29.932Z,10.00
2019-01-20T16:32:58.570Z,11.40
2019-01-20T16:35:28.218Z,12.30
2019-01-20T16:37:58.023Z,12.00
2019-01-20T16:40:27.054Z,12.57
2019-01-20T16:42:55.686Z,12.13
2019-01-20T16:45:35.302Z,12.63
2019-01-20T16:48:03.708Z,13.27
2019-01-20T16:50:32.309Z,13.43
2019-01-20T16:53:00.871Z,16.03
2019-01-20T16:55:29.457Z,14.93
2019-01-20T16:57:58.028Z,16.20
2019-01-20T17:00:32.439Z,16.73
2019-01-20T17:03:01.156Z,18.07
2019-01-20T17:05:29.814Z,18.10
2019-01-20T17:07:58.390Z,17.03
2019-01-20T17:10:29.517Z,18.27
2019-01-20T17:12:58.090Z,18.13
2019-01-20T17:15:39.087Z,19.50
2019-01-20T17:18:02.481Z,19.57
2019-01-20T17:20:31.139Z,19.30
2019-01-20T17:22:59.714Z,17.33
2019-01-20T17:25:28.306Z,17.70
2019-01-20T17:27:56.966Z,20.47
2019-01-20T17:30:31.298Z,18.40
2019-01-20T17:32:59.937Z,19.07
2019-01-20T17:35:28.555Z,19.77
2019-01-20T17:37:57.124Z,20.87
2019-01-20T17:40:27.767Z,21.17
2019-01-20T17:42:57.072Z,20.63
2019-01-20T17:45:28.465Z,20.43
2019-01-20T17:47:57.140Z,22.20
2019-01-20T17:50:28.800Z,22.23
2019-01-20T17:52:57.429Z,21.70
2019-01-20T17:55:26.070Z,20.90
2019-01-20T17:57:54.590Z,22.03
2019-01-20T18:00:27.235Z,21.97
2019-01-20T18:02:55.904Z,22.20
2019-01-20T18:05:25.638Z,21.57
2019-01-20T18:07:54.225Z,25.17
2019-01-20T18:10:22.804Z,22.77
2019-01-20T18:12:51.467Z,24.30
2019-01-20T18:15:25.312Z,22.83
2019-01-20T18:17:53.916Z,23.47
2019-01-20T18:20:25.321Z,23.20
2019-01-20T18:22:53.908Z,21.80
2019-01-20T18:25:22.734Z,23.43
2019-01-20T18:27:51.327Z,22.57
2019-01-20T18:30:24.858Z,22.60
2019-01-20T18:32:53.445Z,23.23
2019-01-20T18:35:22.586Z,22.53
2019-01-20T18:37:51.253Z,23.23
2019-01-20T18:40:21.665Z,22.00
2019-01-20T18:42:50.483Z,22.10
2019-01-20T18:45:21.015Z,23.23
2019-01-20T18:47:49.669Z,21.93
2019-01-20T18:50:20.735Z,23.77
2019-01-20T18:52:49.454Z,24.03
2019-01-20T18:55:19.856Z,23.67
2019-01-20T18:57:48.653Z,25.53
2019-01-20T19:00:27.304Z,26.80
2019-01-20T19:02:56.148Z,26.80
2019-01-20T19:05:24.786Z,28.03
2019-01-20T19:07:55.445Z,28.43
2019-01-20T19:10:23.907Z,27.17
2019-01-20T19:12:52.513Z,25.60
2019-01-20T19:15:24.414Z,24.20
2019-01-20T19:17:53.001Z,25.03
2019-01-20T19:20:23.307Z,25.57
2019-01-20T19:22:53.933Z,25.57
2019-01-20T19:25:22.933Z,27.03
2019-01-20T19:27:51.517Z,27.20
2019-01-20T19:30:25.774Z,29.80
2019-01-20T19:32:54.364Z,29.37
2019-01-20T19:35:23.070Z,29.30
2019-01-20T19:37:51.591Z,28.70
2019-01-20T19:40:20.157Z,28.63
2019-01-20T19:42:48.685Z,27.00
2019-01-20T19:45:19.562Z,27.60
2019-01-20T19:47:48.402Z,27.17
2019-01-20T19:50:17.834Z,27.63
2019-01-20T19:52:46.612Z,27.50
2019-01-20T19:55:18.246Z,28.57
2019-01-20T19:57:46.841Z,27.67
2019-01-20T20:00:22.810Z,28.87
2019-01-20T20:02:51.463Z,29.20
2019-01-20T20:05:21.218Z,38.23
2019-01-20T20:07:50.629Z,34.00
2019-01-20T20:10:21.638Z,33.00
2019-01-20T20:12:50.359Z,33.00
2019-01-20T20:15:21.197Z,34.63
2019-01-20T20:17:49.765Z,31.90
2019-01-20T20:20:19.618Z,32.87
2019-01-20T20:22:48.445Z,32.50
2019-01-20T20:25:19.068Z,32.20
2019-01-20T20:27:47.724Z,31.27
2019-01-20T20:30:18.954Z,29.83
2019-01-20T20:32:47.520Z,29.90
2019-01-20T20:35:16.245Z,27.83
2019-01-20T20:37:44.833Z,31.97
2019-01-20T20:40:16.633Z,28.73
2019-01-20T20:42:45.269Z,31.60
2019-01-20T20:45:16.578Z,30.73
2019-01-20T20:47:45.222Z,29.60
2019-01-20T20:50:15.594Z,31.80
2019-01-20T20:52:46.133Z,29.83
2019-01-20T20:55:14.662Z,31.17
2019-01-20T20:57:43.508Z,30.17
2019-01-20T21:00:18.217Z,29.80
2019-01-20T21:02:46.861Z,29.63
2019-01-20T21:05:15.442Z,28.57
2019-01-20T21:07:44.245Z,27.90
2019-01-20T21:10:15.322Z,29.43
2019-01-20T21:12:43.906Z,28.57
2019-01-20T21:15:14.725Z,28.10
2019-01-20T21:17:48.187Z,29.63
2019-01-20T21:20:21.673Z,30.17
2019-01-20T21:22:50.483Z,31.20
2019-01-20T21:25:19.154Z,29.40
2019-01-20T21:27:47.786Z,28.57
2019-01-20T21:30:21.953Z,29.27
2019-01-20T21:32:50.535Z,30.17
2019-01-20T21:35:19.191Z,31.83
2019-01-20T21:37:47.766Z,30.97
2019-01-20T21:40:18.442Z,30.37
2019-01-20T21:42:47.132Z,30.17
2019-01-20T21:45:17.592Z,30.53
2019-01-20T21:47:46.210Z,31.07
2019-01-20T21:50:17.862Z,32.10
2019-01-20T21:52:46.494Z,31.13
2019-01-20T21:55:15.073Z,31.33
2019-01-20T21:57:43.747Z,32.40
2019-01-20T22:00:17.812Z,30.27
2019-01-20T22:02:46.537Z,29.50
2019-01-20T22:05:15.254Z,29.63
2019-01-20T22:07:43.834Z,29.43
2019-01-20T22:10:17.184Z,29.93
2019-01-20T22:12:45.698Z,30.67
2019-01-20T22:15:14.734Z,28.40
2019-01-20T22:17:45.330Z,30.63
2019-01-20T22:20:15.934Z,32.90
2019-01-20T22:22:44.685Z,31.87
2019-01-20T22:25:13.518Z,32.47
2019-01-20T22:27:42.178Z,30.60
2019-01-20T22:30:16.330Z,31.70
2019-01-20T22:32:44.989Z,31.07
2019-01-20T22:35:13.728Z,29.83
2019-01-20T22:37:42.601Z,29.90
2019-01-20T22:40:16.273Z,29.53
2019-01-20T22:42:45.146Z,30.57
2019-01-20T22:45:15.949Z,29.30
2019-01-20T22:47:44.483Z,31.40
2019-01-20T22:50:13.943Z,29.60
2019-01-20T22:52:42.568Z,32.00
2019-01-20T22:55:16.121Z,31.83
2019-01-20T22:57:44.705Z,32.30
2019-01-20T23:00:41.657Z,28.83
2019-01-20T23:03:10.490Z,29.10
2019-01-20T23:05:39.189Z,30.83
2019-01-20T23:08:07.685Z,30.03
2019-01-20T23:10:36.270Z,32.20
2019-01-20T23:13:05.149Z,31.43
2019-01-20T23:15:33.720Z,31.60
2019-01-20T23:18:02.442Z,32.43
2019-01-20T23:20:31.080Z,32.03
2019-01-20T23:22:59.646Z,32.27
2019-01-20T23:25:28.243Z,30.37
2019-01-20T23:27:56.893Z,30.43
2019-01-20T23:30:25.482Z,29.77
2019-01-20T23:32:53.986Z,30.90
2019-01-20T23:35:22.575Z,30.53
2019-01-20T23:37:51.137Z,30.40
2019-01-20T23:40:19.679Z,31.73
2019-01-20T23:42:48.324Z,32.70
2019-01-20T23:45:16.913Z,29.20
2019-01-20T23:47:45.423Z,31.50
2019-01-20T23:50:17.662Z,31.57
2019-01-20T23:52:46.384Z,31.70
2019-01-20T23:55:15.126Z,30.60
2019-01-20T23:57:43.621Z,31.40
